Metar z połowy godziny Komunikat METAR ze strony awiacja.imgw.pl Metar G30 EPDA METAR EPDA 200400Z 25013G24KT 210V300 9999 BKN043 05/03 Q1011 RMK 045 089 5/5=